TimeEST,TemperatureF,Dew PointF,Humidity,Sea Level PressureIn,VisibilityMPH,Wind Direction,Wind SpeedMPH,Gust SpeedMPH,PrecipitationIn,Events,Conditions,WindDirDegrees,DateUTC
12:51 AM,25.0,19.0,78,30.20,10.0,Calm,Calm,-,N/A,,Scattered Clouds,0,2013-01-06 05:51:00
1:51 AM,27.0,19.9,75,30.24,10.0,West,3.5,-,N/A,,Mostly Cloudy,260,2013-01-06 06:51:00
2:51 AM,28.0,21.0,75,30.20,10.0,Calm,Calm,-,N/A,,Overcast,0,2013-01-06 07:51:00
3:51 AM,28.9,19.9,69,30.17,10.0,Calm,Calm,-,N/A,,Overcast,0,2013-01-06 08:51:00
4:28 AM,28.4,21.2,74,30.14,6.0,Calm,Calm,-,0.00,Snow,Light Snow,0,2013-01-06 09:28:00
4:44 AM,28.4,21.2,74,30.15,2.0,SW,3.5,-,0.00,Snow,Light Snow,220,2013-01-06 09:44:00
4:51 AM,28.0,23.0,81,30.15,2.0,SW,3.5,-,0.00,Snow,Light Snow,220,2013-01-06 09:51:00
5:02 AM,28.4,24.8,86,30.14,1.2,SSW,3.5,-,0.00,Snow,Light Snow,200,2013-01-06 10:02:00
5:42 AM,28.4,26.6,93,30.12,3.0,Calm,Calm,-,0.02,Snow,Light Snow,0,2013-01-06 10:42:00
5:51 AM,28.0,26.1,92,30.12,3.0,Calm,Calm,-,0.02,Snow,Light Snow,0,2013-01-06 10:51:00
6:03 AM,28.4,26.6,93,30.11,2.5,Calm,Calm,-,0.00,Snow,Light Snow,0,2013-01-06 11:03:00
6:12 AM,28.4,26.6,93,30.11,1.8,Calm,Calm,-,0.01,Snow,Light Snow,0,2013-01-06 11:12:00
6:24 AM,28.4,26.6,93,30.11,3.0,South,4.6,-,0.01,Snow,Light Snow,180,2013-01-06 11:24:00
6:51 AM,28.9,28.0,96,30.11,6.0,South,3.5,-,0.01,Snow,Light Snow,190,2013-01-06 11:51:00
7:24 AM,30.2,28.4,93,30.11,7.0,Calm,Calm,-,0.00,Snow,Light Snow,0,2013-01-06 12:24:00
7:51 AM,30.9,28.9,92,30.11,5.0,Calm,Calm,-,0.00,,Overcast,0,2013-01-06 12:51:00
8:31 AM,30.2,28.4,93,30.10,5.0,SSW,6.9,-,N/A,,Mostly Cloudy,210,2013-01-06 13:31:00
8:51 AM,33.1,28.9,85,30.10,6.0,SW,6.9,-,N/A,,Mostly Cloudy,220,2013-01-06 13:51:00
9:51 AM,35.1,28.0,76,30.09,7.0,SW,9.2,-,N/A,,Scattered Clouds,230,2013-01-06 14:51:00
10:51 AM,37.0,30.0,76,30.06,9.0,SW,10.4,-,N/A,,Scattered Clouds,230,2013-01-06 15:51:00
11:26 AM,37.4,30.2,75,30.03,10.0,WSW,11.5,23.0,N/A,,Mostly Cloudy,240,2013-01-06 16:26:00
11:51 AM,37.9,30.0,73,30.00,10.0,WSW,13.8,-,N/A,,Mostly Cloudy,240,2013-01-06 16:51:00
12:04 PM,37.4,30.2,75,30.00,10.0,SW,12.7,-,N/A,,Mostly Cloudy,230,2013-01-06 17:04:00
12:51 PM,39.9,30.9,70,29.98,10.0,West,10.4,-,N/A,,Scattered Clouds,260,2013-01-06 17:51:00
1:51 PM,41.0,30.0,65,29.97,10.0,WSW,9.2,-,N/A,,Partly Cloudy,240,2013-01-06 18:51:00
2:51 PM,42.1,28.0,58,29.96,10.0,WSW,8.1,-,N/A,,Partly Cloudy,250,2013-01-06 19:51:00
3:51 PM,42.8,28.4,57,29.95,10.0,West,5.8,-,N/A,,Scattered Clouds,280,2013-01-06 20:51:00
4:51 PM,39.0,27.0,62,29.96,10.0,SW,3.5,-,N/A,,Scattered Clouds,230,2013-01-06 21:51:00
5:51 PM,37.4,28.4,70,29.97,10.0,WSW,3.5,-,N/A,,Partly Cloudy,250,2013-01-06 22:51:00
6:51 PM,33.1,27.0,78,29.99,9.0,Calm,Calm,-,N/A,,Scattered Clouds,0,2013-01-06 23:51:00
7:51 PM,30.9,27.0,85,29.99,8.0,SW,5.8,-,N/A,,Mostly Cloudy,220,2013-01-07 00:51:00
8:51 PM,33.1,28.0,82,29.98,9.0,West,4.6,-,N/A,,Scattered Clouds,260,2013-01-07 01:51:00
9:51 PM,32.0,28.0,85,29.98,8.0,SW,3.5,-,N/A,,Scattered Clouds,220,2013-01-07 02:51:00
10:51 PM,28.9,26.1,89,29.99,7.0,WSW,5.8,-,N/A,,Mostly Cloudy,240,2013-01-07 03:51:00
11:51 PM,32.0,27.0,82,29.99,8.0,West,8.1,-,N/A,,Mostly Cloudy,280,2013-01-07 04:51:00